Time;durP1;ratioP1;P1;durP2;ratioP2;P2;SDS_P1;SDS_P2;PMS_P1;PMS_P2;Temp;Humidity;BMP_temperature;BMP_pressure;BME280_temperature;BME280_humidity;BME280_pressure;Samples;Min_cycle;Max_cycle;Signal;HPM_P1;HPM_P2
2022/12/25 00:00:33;;;;;;;406.17;42.10;;;;;;;3.34;100.00;148290.13;5005853;28;20117;-64
2022/12/25 00:02:59;;;;;;;587.03;46.43;;;;;;;3.19;100.00;148252.81;5002671;28;20030;-63
2022/12/25 00:05:25;;;;;;;420.70;37.33;;;;;;;3.01;100.00;148206.47;5000151;28;20494;-64
2022/12/25 00:07:50;;;;;;;391.07;38.20;;;;;;;2.95;100.00;148191.06;5006200;28;20236;-64
2022/12/25 00:10:16;;;;;;;552.53;43.90;;;;;;;3.01;100.00;148205.19;5006974;28;20072;-64
2022/12/25 00:12:41;;;;;;;407.40;41.43;;;;;;;3.19;100.00;148251.53;4996290;28;20027;-63
2022/12/25 00:15:07;;;;;;;394.00;39.73;;;;;;;3.28;100.00;148274.69;5001290;28;20022;-64
2022/12/25 00:17:33;;;;;;;519.00;43.93;;;;;;;3.24;100.00;148264.38;4977916;28;20549;-64
2022/12/25 00:19:58;;;;;;;495.53;42.43;;;;;;;3.16;100.00;148243.81;4998029;28;20034;-63
2022/12/25 00:22:23;;;;;;;386.07;38.87;;;;;;;3.08;100.00;148224.50;4997892;28;20109;-64
2022/12/25 00:24:49;;;;;;;361.80;36.37;;;;;;;3.06;100.00;148219.34;5006046;28;20382;-63
2022/12/25 00:27:15;;;;;;;366.17;36.50;;;;;;;3.02;100.00;148207.75;4999539;28;20574;-63
2022/12/25 00:29:40;;;;;;;270.60;34.80;;;;;;;2.99;100.00;148200.03;5009419;28;20026;-64
2022/12/25 00:32:06;;;;;;;328.90;37.53;;;;;;;3.01;100.00;148206.47;5012765;28;20018;-64
2022/12/25 00:34:31;;;;;;;217.73;33.83;;;;;;;3.07;100.00;148220.63;5000324;28;20030;-64
2022/12/25 00:36:57;;;;;;;224.67;35.50;;;;;;;3.26;100.00;148268.22;4994533;28;20465;-64
2022/12/25 00:39:23;;;;;;;241.77;34.07;;;;;;;3.31;100.00;148282.41;5003149;28;20040;-63
2022/12/25 00:44:33;;;;;;;259.43;36.23;;;;;;;3.08;100.00;148223.22;5005511;28;20079;-63
2022/12/25 00:46:58;;;;;;;210.27;33.27;;;;;;;3.15;100.00;148242.53;4996287;28;20417;-63
2022/12/25 00:49:24;;;;;;;250.17;35.87;;;;;;;3.23;100.00;148263.09;4996252;28;20075;-64
2022/12/25 00:51:50;;;;;;;206.90;34.03;;;;;;;3.39;100.00;148301.69;5010216;28;20018;-64
2022/12/25 00:54:15;;;;;;;200.47;34.43;;;;;;;3.56;100.00;148344.19;5009603;28;20022;-64
2022/12/25 00:56:41;;;;;;;209.47;35.97;;;;;;;3.77;100.00;148399.56;4998180;28;20021;-63
2022/12/25 00:59:06;;;;;;;213.17;36.33;;;;;;;3.91;100.00;148433.03;4995102;28;20034;-63
2022/12/25 01:01:32;;;;;;;217.90;35.87;;;;;;;3.99;100.00;148454.88;4994517;28;20505;-63
2022/12/25 01:03:58;;;;;;;222.73;39.47;;;;;;;3.92;100.00;148436.88;4996071;28;20109;-64
2022/12/25 01:06:24;;;;;;;230.47;37.77;;;;;;;3.87;100.00;148423.97;4996423;28;20308;-63
2022/12/25 01:11:34;;;;;;;214.67;37.07;;;;;;;3.93;100.00;148439.44;4998427;28;20179;-63
2022/12/25 01:13:59;;;;;;;223.13;38.13;;;;;;;4.09;100.00;148480.66;4993832;28;20469;-64
2022/12/25 01:16:25;;;;;;;213.40;37.47;;;;;;;4.14;100.00;148492.25;4994489;28;20117;-64
2022/12/25 01:18:50;;;;;;;220.87;39.13;;;;;;;4.23;100.00;148515.41;4994104;28;20019;-63
2022/12/25 01:21:19;;;;;;;220.37;38.83;;;;;;;4.42;100.00;148563.09;4998741;28;20029;-63
2022/12/25 01:23:45;;;;;;;220.93;38.33;;;;;;;4.56;100.00;148597.88;5011350;28;20497;-63
2022/12/25 01:26:12;;;;;;;215.20;39.57;;;;;;;4.69;100.00;148632.66;4998691;28;20018;-63
2022/12/25 01:28:38;;;;;;;231.40;40.13;;;;;;;4.85;100.00;148671.34;4996175;28;20053;-63
2022/12/25 01:31:07;;;;;;;232.37;40.53;;;;;;;4.94;100.00;148694.50;5007266;28;20108;-63
2022/12/25 01:33:32;;;;;;;214.70;38.50;;;;;;;4.93;100.00;148693.22;4993681;28;20026;-63
2022/12/25 01:35:58;;;;;;;231.20;42.07;;;;;;;4.85;100.00;148672.63;5005443;28;20132;-63
2022/12/25 01:38:23;;;;;;;230.33;39.63;;;;;;;4.73;100.00;148640.44;5009338;28;20032;-63
2022/12/25 01:40:49;;;;;;;233.37;40.90;;;;;;;4.65;100.00;148622.38;4997824;28;20026;-63
2022/12/25 01:43:26;;;;;;;220.50;40.13;;;;;;;4.44;100.00;148568.25;4998016;28;20051;-64
2022/12/25 01:45:52;;;;;;;215.90;38.17;;;;;;;4.36;100.00;148547.63;4994705;28;20218;-64
2022/12/25 01:48:22;;;;;;;208.67;36.83;;;;;;;4.36;100.00;148548.94;4993491;28;20162;-63
2022/12/25 01:50:57;;;;;;;230.10;35.00;;;;;;;4.38;100.00;148552.81;4999331;28;20665;-63
2022/12/25 01:53:24;;;;;;;235.77;37.07;;;;;;;4.15;100.00;148493.56;4995630;28;20014;-64
2022/12/25 01:55:56;;;;;;;246.97;38.27;;;;;;;4.06;100.00;148472.94;5007622;28;20022;-63
2022/12/25 01:58:22;;;;;;;216.75;36.17;;;;;;;3.96;100.00;148445.88;4997986;28;20030;-63
2022/12/25 02:00:47;;;;;;;207.83;36.37;;;;;;;3.96;100.00;148447.16;4994689;28;20046;-63
2022/12/25 02:03:13;;;;;;;225.00;39.87;;;;;;;3.88;100.00;148426.59;5045786;22;20054;-70
2022/12/25 02:05:38;;;;;;;206.37;36.37;;;;;;;3.83;100.00;148413.69;5006932;28;20061;-70
2022/12/25 02:08:09;;;;;;;223.17;37.37;;;;;;;3.79;100.00;148403.41;5024212;28;20465;-70
2022/12/25 02:10:35;;;;;;;217.05;36.95;;;;;;;3.98;100.00;148452.31;5018679;28;20037;-71
2022/12/25 02:13:01;;;;;;;196.90;35.63;;;;;;;4.03;100.00;148465.22;4995138;28;20493;-70
2022/12/25 02:15:57;;;;;;;231.27;38.67;;;;;;;4.06;100.00;148472.94;5007394;28;20105;-69
2022/12/25 02:18:45;;;;;;;223.67;37.07;;;;;;;4.01;100.00;148458.78;5010919;28;20038;-70
2022/12/25 02:21:22;;;;;;;224.10;38.13;;;;;;;4.02;100.00;148462.66;5009617;28;20030;-70
2022/12/25 02:24:05;;;;;;;252.97;39.30;;;;;;;3.93;100.00;148439.44;5025354;28;20029;-70
2022/12/25 02:26:42;;;;;;;215.33;37.03;;;;;;;3.79;100.00;148403.41;5009777;28;20101;-70
2022/12/25 02:29:28;;;;;;;239.80;40.17;;;;;;;3.85;100.00;148418.84;5004937;28;20494;-70
2022/12/25 02:31:59;;;;;;;200.63;38.53;;;;;;;3.92;100.00;148436.88;5008433;28;20045;-70
2022/12/25 02:34:31;;;;;;;215.88;38.63;;;;;;;3.88;100.00;148426.59;5013612;28;20397;-70
2022/12/25 02:36:59;;;;;;;233.55;38.80;;;;;;;3.85;100.00;148418.84;5016542;28;20417;-70
2022/12/25 02:39:59;;;;;;;225.17;39.03;;;;;;;3.96;100.00;148447.16;5012012;28;20113;-70
2022/12/25 03:07:43;;;;;;;256.13;38.97;;;;;;;3.70;100.00;148381.50;4991257;28;20033;-72
2022/12/25 03:13:04;;;;;;;241.13;37.63;;;;;;;3.70;100.00;148381.50;4989430;28;20104;-72
2022/12/25 03:18:23;;;;;;;229.27;37.43;;;;;;;3.88;100.00;148425.25;4990160;28;20041;-73
2022/12/25 03:29:02;;;;;;;208.57;37.10;;;;;;;4.44;100.00;148568.25;4989140;28;20085;-73
2022/12/25 03:31:52;;;;;;;186.87;37.80;;;;;;;4.53;100.00;148590.16;4991431;28;20062;-72
2022/12/25 04:38:12;;;;;;;121.73;27.10;;;;;;;5.60;100.00;148862.13;4994783;28;20508;-73
2022/12/25 04:40:37;;;;;;;134.60;28.27;;;;;;;5.54;100.00;148847.94;4993082;28;20031;-72
2022/12/25 04:43:02;;;;;;;117.53;24.47;;;;;;;5.49;100.00;148835.06;4994854;28;20050;-72
2022/12/25 04:45:28;;;;;;;132.00;28.27;;;;;;;5.44;100.00;148822.13;4994310;28;20081;-72
2022/12/25 04:47:53;;;;;;;110.53;25.67;;;;;;;5.45;100.00;148823.41;4994570;28;20023;-72
2022/12/25 04:50:19;;;;;;;113.57;24.73;;;;;;;5.51;100.00;148838.91;4998484;28;20033;-72
2022/12/25 04:52:44;;;;;;;110.30;24.93;;;;;;;5.59;100.00;148859.56;4993118;28;20109;-72
2022/12/25 04:55:10;;;;;;;105.20;23.93;;;;;;;5.63;100.00;148869.88;5001321;28;20470;-73
2022/12/25 04:57:36;;;;;;;97.10;19.87;;;;;;;5.63;100.00;148869.88;4994029;28;20022;-72
2022/12/25 05:00:03;;;;;;;94.80;21.93;;;;;;;5.59;100.00;148860.84;4979050;28;20109;-72
2022/12/25 05:02:29;;;;;;;98.83;23.40;;;;;;;5.58;100.00;148857.00;4993885;28;20109;-72
2022/12/25 05:04:54;;;;;;;110.47;24.07;;;;;;;5.59;100.00;148859.56;4993829;28;20454;-72
2022/12/25 05:07:20;;;;;;;101.07;21.40;;;;;;;5.58;100.00;148858.28;4999164;28;20022;-72
2022/12/25 05:09:45;;;;;;;101.20;24.03;;;;;;;5.56;100.00;148851.78;4993221;28;20061;-72
2022/12/25 05:12:12;;;;;;;87.40;20.17;;;;;;;5.60;100.00;148862.13;4994267;28;20105;-72
2022/12/25 05:14:38;;;;;;;101.03;24.17;;;;;;;5.59;100.00;148860.84;4993955;28;20035;-72
2022/12/25 05:17:04;;;;;;;115.17;25.47;;;;;;;5.51;100.00;148838.91;5010290;28;20036;-72
2022/12/25 05:19:30;;;;;;;100.63;23.90;;;;;;;5.52;100.00;148841.50;4998837;28;20034;-72
2022/12/25 05:21:55;;;;;;;102.43;23.17;;;;;;;5.60;100.00;148862.13;5000724;28;20444;-72
2022/12/25 05:24:24;;;;;;;100.87;21.93;;;;;;;5.67;100.00;148880.16;4991316;28;20034;-72
2022/12/25 05:26:50;;;;;;;110.57;23.00;;;;;;;5.69;100.00;148885.31;4992848;28;20557;-72
2022/12/25 05:29:15;;;;;;;99.53;22.93;;;;;;;5.66;100.00;148876.31;4994256;28;20109;-72
2022/12/25 05:31:40;;;;;;;93.07;23.33;;;;;;;5.72;100.00;148893.09;4992802;28;20034;-72
2022/12/25 05:34:06;;;;;;;103.03;24.07;;;;;;;5.76;100.00;148903.41;4994120;28;20117;-72
2022/12/25 05:36:31;;;;;;;110.27;25.13;;;;;;;5.76;100.00;148903.41;4990798;28;20088;-72
2022/12/25 05:38:57;;;;;;;103.27;24.20;;;;;;;5.77;100.00;148905.97;4993717;28;20379;-72
2022/12/25 05:41:22;;;;;;;101.27;23.63;;;;;;;5.75;100.00;148900.81;4994137;28;20112;-72
2022/12/25 05:43:47;;;;;;;99.97;24.37;;;;;;;5.81;100.00;148916.28;4993393;28;20445;-72
2022/12/25 05:46:13;;;;;;;112.83;23.90;;;;;;;5.83;100.00;148920.19;4992857;28;20035;-72
2022/12/25 05:48:39;;;;;;;109.03;24.83;;;;;;;5.91;100.00;148940.84;4994085;28;20525;-72
2022/12/25 05:51:04;;;;;;;95.40;23.57;;;;;;;5.89;100.00;148936.94;4992051;28;20470;-72
2022/12/25 05:53:30;;;;;;;101.37;21.80;;;;;;;6.03;100.00;148970.50;4992035;28;20177;-72
2022/12/25 05:55:59;;;;;;;81.23;19.93;;;;;;;6.02;100.00;148969.22;4993778;28;20037;-72
2022/12/25 05:58:25;;;;;;;81.23;19.50;;;;;;;6.09;100.00;148986.03;4993541;28;20445;-72
2022/12/25 06:00:50;;;;;;;75.93;18.63;;;;;;;6.15;100.00;149001.47;4991016;28;20070;-72
2022/12/25 06:03:15;;;;;;;92.77;19.67;;;;;;;6.17;100.00;149007.91;4993459;28;20034;-72
2022/12/25 06:05:41;;;;;;;77.00;19.50;;;;;;;6.26;100.00;149028.56;4993200;28;20072;-72
2022/12/25 06:08:06;;;;;;;81.83;20.87;;;;;;;6.25;100.00;149027.28;4992328;28;20037;-72
2022/12/25 06:10:32;;;;;;;76.07;18.40;;;;;;;6.33;100.00;149046.66;4993259;28;20071;-72
2022/12/25 06:12:57;;;;;;;80.40;21.03;;;;;;;6.25;100.00;149027.28;4993710;28;20057;-72
2022/12/25 06:15:22;;;;;;;81.47;20.50;;;;;;;6.27;100.00;149032.44;4992545;28;20375;-72
2022/12/25 06:17:48;;;;;;;83.33;21.20;;;;;;;6.29;100.00;149037.59;4993565;28;20045;-72
2022/12/25 06:20:13;;;;;;;89.93;21.67;;;;;;;6.29;100.00;149037.59;4992792;28;20034;-72
2022/12/25 06:22:38;;;;;;;85.07;21.70;;;;;;;6.33;100.00;149047.94;4991700;28;20050;-72
2022/12/25 06:25:04;;;;;;;86.13;20.73;;;;;;;6.38;100.00;149060.84;4992935;28;20038;-71
2022/12/25 06:27:30;;;;;;;87.70;21.87;;;;;;;6.40;100.00;149064.69;4992488;28;20053;-70
2022/12/25 06:29:55;;;;;;;90.10;21.60;;;;;;;6.45;100.00;149078.94;4992585;28;20038;-70
2022/12/25 06:32:20;;;;;;;72.00;18.17;;;;;;;6.52;100.00;149095.69;4992248;28;20036;-70
2022/12/25 06:34:46;;;;;;;82.10;19.87;;;;;;;6.52;100.00;149094.38;4992680;28;20041;-70
2022/12/25 06:37:11;;;;;;;73.60;18.93;;;;;;;6.59;100.00;149112.47;4991345;28;20037;-70
2022/12/25 06:39:37;;;;;;;76.33;18.60;;;;;;;6.64;100.00;149125.38;4992488;28;20041;-70
2022/12/25 06:42:02;;;;;;;70.43;18.47;;;;;;;6.66;100.00;149130.53;4992541;28;20030;-71
2022/12/25 06:44:27;;;;;;;84.27;19.87;;;;;;;6.63;100.00;149124.06;4992813;28;20034;-70
2022/12/25 06:46:53;;;;;;;77.93;20.20;;;;;;;6.62;100.00;149120.22;4991539;28;20026;-70
2022/12/25 06:49:20;;;;;;;81.13;19.30;;;;;;;6.68;100.00;149135.72;4992466;28;20038;-70
2022/12/25 06:51:45;;;;;;;70.60;18.17;;;;;;;6.66;100.00;149130.53;4990751;28;20041;-70
2022/12/25 06:54:11;;;;;;;94.30;21.47;;;;;;;6.67;100.00;149133.16;4991720;28;20034;-71
2022/12/25 06:56:37;;;;;;;83.43;20.53;;;;;;;6.70;100.00;149142.16;4990917;28;20030;-70
2022/12/25 06:59:05;;;;;;;84.43;20.47;;;;;;;6.71;100.00;149144.75;4992334;28;20041;-70
2022/12/25 07:01:45;;;;;;;72.60;19.67;;;;;;;6.74;100.00;149152.47;4983832;28;20057;-70
2022/12/25 07:04:16;;;;;;;86.63;20.07;;;;;;;6.75;100.00;149153.78;4992261;28;20045;-70
2022/12/25 07:06:41;;;;;;;75.60;19.70;;;;;;;6.75;100.00;149155.06;4991367;28;20034;-70
2022/12/25 07:09:06;;;;;;;80.30;19.73;;;;;;;6.80;100.00;149166.72;4992409;28;20069;-70
2022/12/25 07:11:32;;;;;;;84.50;19.53;;;;;;;6.80;100.00;149165.41;4992784;28;20034;-70
2022/12/25 07:13:57;;;;;;;75.50;19.17;;;;;;;6.81;100.00;149168.00;4992054;28;20027;-71
2022/12/25 07:16:22;;;;;;;82.70;19.47;;;;;;;6.84;100.00;149177.03;4991142;28;20380;-70
2022/12/25 07:18:48;;;;;;;74.20;19.77;;;;;;;6.83;100.00;149173.16;4992335;28;20030;-70
2022/12/25 07:21:16;;;;;;;59.97;16.60;;;;;;;6.90;100.00;149192.50;4991169;28;20042;-70
2022/12/25 07:23:44;;;;;;;69.60;18.30;;;;;;;6.87;100.00;149183.47;4992635;28;20497;-70
2022/12/25 07:26:11;;;;;;;72.20;19.60;;;;;;;6.92;100.00;149197.69;4992144;28;20026;-70
2022/12/25 07:28:37;;;;;;;63.03;17.20;;;;;;;6.97;100.00;149210.59;4992257;28;20375;-70
2022/12/25 07:31:10;;;;;;;62.40;17.50;;;;;;;6.97;100.00;149210.59;4991418;28;20081;-70
2022/12/25 07:33:35;;;;;;;57.10;14.40;;;;;;;6.97;100.00;149210.59;4992442;28;20033;-70
2022/12/25 07:36:01;;;;;;;69.10;15.83;;;;;;;6.95;100.00;149204.13;4989948;28;20022;-70
2022/12/25 07:38:27;;;;;;;56.13;15.87;;;;;;;6.97;100.00;149209.28;4992205;28;20466;-70
2022/12/25 07:40:52;;;;;;;63.30;16.30;;;;;;;6.89;100.00;149189.91;4991944;28;20114;-70
2022/12/25 07:43:18;;;;;;;70.07;18.27;;;;;;;6.93;100.00;149198.97;4992376;28;20578;-70
2022/12/25 07:45:44;;;;;;;61.63;16.03;;;;;;;6.90;100.00;149192.50;4991893;28;20018;-70
2022/12/25 07:48:09;;;;;;;61.43;15.70;;;;;;;6.98;100.00;149213.16;4990529;28;20101;-70
2022/12/25 07:50:35;;;;;;;55.50;16.57;;;;;;;7.02;100.00;149222.19;4991275;28;20045;-70
2022/12/25 07:53:00;;;;;;;73.73;19.00;;;;;;;7.01;100.00;149220.91;4974484;28;20080;-70
2022/12/25 07:55:25;;;;;;;70.43;18.57;;;;;;;7.00;100.00;149218.31;4991941;28;20061;-70
2022/12/25 07:57:51;;;;;;;77.50;18.17;;;;;;;7.01;100.00;149219.59;4991434;28;20053;-70
2022/12/25 08:00:17;;;;;;;66.13;18.80;;;;;;;7.08;100.00;149236.41;4990172;28;20390;-70
2022/12/25 08:02:43;;;;;;;75.57;20.27;;;;;;;7.07;100.00;149233.84;4996061;28;20072;-70
2022/12/25 08:05:08;;;;;;;76.97;20.03;;;;;;;7.10;100.00;149241.56;4993719;28;20109;-70
2022/12/25 08:07:34;;;;;;;76.73;19.90;;;;;;;7.13;100.00;149249.31;4992166;28;20015;-71
2022/12/25 08:10:00;;;;;;;72.50;19.93;;;;;;;7.17;100.00;149259.69;4991963;28;20444;-70
2022/12/25 08:12:26;;;;;;;70.47;19.23;;;;;;;7.20;100.00;149268.69;4991134;28;20101;-70
2022/12/25 08:14:51;;;;;;;66.63;17.43;;;;;;;7.23;100.00;149275.16;4995074;28;20034;-70
2022/12/25 08:17:16;;;;;;;64.93;17.63;;;;;;;7.23;100.00;149275.16;4994106;28;20033;-70
2022/12/25 08:19:42;;;;;;;60.90;18.00;;;;;;;7.27;100.00;149285.50;4994931;28;20037;-70
2022/12/25 08:22:07;;;;;;;69.43;18.50;;;;;;;7.21;100.00;149270.00;4995895;28;20029;-70
2022/12/25 08:24:32;;;;;;;72.20;17.77;;;;;;;7.17;100.00;149260.97;4995079;28;20486;-70
2022/12/25 08:26:58;;;;;;;71.47;18.10;;;;;;;7.14;100.00;149251.88;4995390;28;20022;-70
2022/12/25 08:29:23;;;;;;;64.07;17.30;;;;;;;7.16;100.00;149257.09;4995286;28;20129;-70
2022/12/25 08:31:49;;;;;;;72.30;18.23;;;;;;;7.21;100.00;149271.28;4993469;28;20033;-70
2022/12/25 08:34:14;;;;;;;71.73;18.40;;;;;;;7.21;100.00;149270.00;4990869;28;20030;-70
2022/12/25 08:36:40;;;;;;;70.57;18.23;;;;;;;7.20;100.00;149267.41;4995415;28;20018;-70
2022/12/25 08:39:06;;;;;;;72.70;17.50;;;;;;;7.21;100.00;149270.00;4994868;28;20084;-70
2022/12/25 08:41:35;;;;;;;57.07;15.43;;;;;;;7.40;100.00;149319.09;4995576;28;20520;-69
2022/12/25 08:44:01;;;;;;;48.17;13.47;;;;;;;7.54;100.00;149353.97;4995181;28;20026;-70
2022/12/25 08:46:26;;;;;;;53.77;13.77;;;;;;;7.58;100.00;149365.56;4993443;28;20101;-69
2022/12/25 08:48:52;;;;;;;41.90;12.47;;;;;;;7.64;100.00;149379.81;4993831;28;20109;-69
2022/12/25 08:51:20;;;;;;;41.87;12.33;;;;;;;7.68;100.00;149388.84;4994974;28;20034;-70
2022/12/25 08:53:47;;;;;;;44.63;13.17;;;;;;;7.70;100.00;149394.00;4995343;28;20529;-69
2022/12/25 08:56:14;;;;;;;37.93;11.63;;;;;;;7.69;100.00;149391.41;4994382;28;20044;-70
2022/12/25 08:58:40;;;;;;;43.13;13.40;;;;;;;7.71;100.00;149396.56;4995151;28;20058;-70
2022/12/25 09:01:06;;;;;;;49.27;13.57;;;;;;;7.72;100.00;149399.16;4993759;28;20085;-70
2022/12/25 09:03:33;;;;;;;49.57;16.70;;;;;;;7.71;100.00;149396.56;4993438;28;20033;-70
2022/12/25 09:06:08;;;;;;;45.13;15.57;;;;;;;7.78;100.00;149415.97;4994248;28;20057;-70
2022/12/25 09:08:34;;;;;;;52.97;17.73;;;;;;;7.86;100.00;149436.63;4994870;28;20076;-69
2022/12/25 09:11:04;;;;;;;52.40;17.13;;;;;;;7.82;100.00;149425.00;4994171;28;20030;-69
2022/12/25 09:13:30;;;;;;;43.13;14.47;;;;;;;7.73;100.00;149403.03;4985568;28;20034;-69
2022/12/25 09:15:55;;;;;;;37.23;10.70;;;;;;;7.69;100.00;149391.41;4987957;28;20030;-69
2022/12/25 09:18:21;;;;;;;48.97;13.63;;;;;;;7.62;100.00;149375.88;4990430;28;20433;-69
2022/12/25 09:20:46;;;;;;;45.60;13.53;;;;;;;7.50;100.00;149344.88;4992824;28;20038;-70
2022/12/25 09:23:12;;;;;;;48.13;14.20;;;;;;;7.50;100.00;149344.88;4993425;28;20018;-69
2022/12/25 09:25:37;;;;;;;44.57;12.50;;;;;;;7.51;100.00;149347.50;4992844;28;20077;-69
2022/12/25 09:28:03;;;;;;;38.03;11.90;;;;;;;7.62;100.00;149375.88;4992199;28;20034;-69
2022/12/25 09:30:28;;;;;;;42.57;11.83;;;;;;;7.73;100.00;149401.75;4993146;28;20105;-70
2022/12/25 09:32:53;;;;;;;30.53;10.60;;;;;;;7.82;100.00;149426.28;4992738;28;20038;-70
2022/12/25 09:35:19;;;;;;;33.67;9.80;;;;;;;7.85;100.00;149432.75;4994240;28;20033;-70
2022/12/25 09:37:44;;;;;;;39.63;10.97;;;;;;;7.86;100.00;149436.63;4992286;28;20030;-70
2022/12/25 09:40:16;;;;;;;34.33;10.10;;;;;;;7.84;100.00;149430.16;4991172;28;20114;-70
2022/12/25 09:42:42;;;;;;;31.25;10.43;;;;;;;7.87;100.00;149437.91;4998386;28;20402;-69
2022/12/25 09:45:17;;;;;;;35.37;13.40;;;;;;;7.87;100.00;149439.25;4971085;28;20049;-70
2022/12/25 09:47:46;;;;;;;32.30;13.60;;;;;;;7.91;100.00;149448.28;4992256;28;20030;-70
2022/12/25 09:50:17;;;;;;;36.00;11.47;;;;;;;7.90;100.00;149445.69;4992195;28;20038;-70
2022/12/25 09:52:48;;;;;;;35.45;11.73;;;;;;;7.89;100.00;149443.13;4989180;28;20030;-69
2022/12/25 09:55:19;;;;;;;29.92;11.05;;;;;;;7.93;100.00;149453.44;4984411;28;20191;-70
2022/12/25 09:57:48;;;;;;;28.37;10.23;;;;;;;7.95;100.00;149458.59;4988968;28;20077;-70
2022/12/25 10:00:19;;;;;;;36.70;11.03;;;;;;;7.97;100.00;149463.75;4993866;28;20092;-69
2022/12/25 10:03:08;;;;;;;33.63;10.45;;;;;;;8.03;100.00;149479.28;4991210;28;20030;-70
2022/12/25 10:06:04;;;;;;;29.47;9.13;;;;;;;8.10;100.00;149496.06;4989648;28;20561;-70
2022/12/25 10:08:33;;;;;;;31.30;9.87;;;;;;;8.14;100.00;149506.44;4991046;28;20062;-70
2022/12/25 10:11:39;;;;;;;27.63;9.80;;;;;;;8.09;100.00;149494.78;4991313;28;20494;-70
2022/12/25 10:14:34;;;;;;;23.17;8.97;;;;;;;8.19;100.00;149519.34;4986045;28;20040;-70
2022/12/25 10:17:24;;;;;;;26.70;9.70;;;;;;;8.26;100.00;149536.16;4989205;28;20041;-70
2022/12/25 10:19:58;;;;;;;28.13;9.83;;;;;;;8.22;100.00;149528.38;4992043;28;20117;-70
2022/12/25 10:22:41;;;;;;;27.70;9.00;;;;;;;8.28;100.00;149541.34;4988559;28;20474;-70
2022/12/25 10:25:15;;;;;;;31.97;10.50;;;;;;;8.29;100.00;149543.91;4990372;28;20087;-70
2022/12/25 10:27:41;;;;;;;26.63;10.40;;;;;;;8.32;100.00;149552.94;4988739;28;20034;-70
2022/12/25 10:30:14;;;;;;;29.63;9.40;;;;;;;8.30;100.00;149547.78;4989699;28;20037;-70
2022/12/25 10:32:40;;;;;;;23.40;9.87;;;;;;;8.34;100.00;149556.81;4989130;28;20045;-70
2022/12/25 10:35:17;;;;;;;22.50;10.20;;;;;;;8.34;100.00;149556.81;4997045;28;20058;-69
2022/12/25 10:37:47;;;;;;;27.17;11.40;;;;;;;8.37;100.00;149564.66;4995404;28;20055;-70
2022/12/25 10:40:21;;;;;;;24.10;10.07;;;;;;;8.36;100.00;149563.38;4989050;28;20045;-70
2022/12/25 10:42:53;;;;;;;21.97;9.03;;;;;;;8.41;100.00;149575.00;4989367;28;20041;-69
2022/12/25 10:45:18;;;;;;;23.23;7.67;;;;;;;8.41;100.00;149575.00;4987008;28;20034;-70
2022/12/25 10:47:44;;;;;;;20.43;8.27;;;;;;;8.39;100.00;149569.81;4990489;28;20433;-69
2022/12/25 10:50:30;;;;;;;27.33;9.30;;;;;;;8.43;100.00;149581.44;4996452;28;20045;-70
2022/12/25 10:53:08;;;;;;;21.97;8.30;;;;;;;8.45;100.00;149586.59;4992221;28;20132;-69
2022/12/25 10:55:33;;;;;;;27.80;9.17;;;;;;;8.46;100.00;149589.19;4988921;28;20037;-70
2022/12/25 10:58:00;;;;;;;22.47;9.20;;;;;;;8.51;100.00;149600.84;4991654;28;20026;-70
2022/12/25 11:00:31;;;;;;;22.67;9.00;;;;;;;8.48;100.00;149594.41;4996664;28;20053;-69
2022/12/25 11:02:57;;;;;;;27.13;9.40;;;;;;;8.49;100.00;149595.69;4998897;28;20045;-70
2022/12/25 11:05:29;;;;;;;30.20;9.70;;;;;;;8.49;100.00;149597.00;5007819;28;20507;-69
2022/12/25 11:07:55;;;;;;;25.37;9.40;;;;;;;8.45;100.00;149586.59;4990835;28;20026;-69
2022/12/25 11:10:21;;;;;;;22.77;9.03;;;;;;;8.44;100.00;149584.03;4996438;28;20074;-70
2022/12/25 11:12:46;;;;;;;18.83;7.87;;;;;;;8.51;100.00;149600.84;4994437;28;20037;-69
2022/12/25 11:15:33;;;;;;;22.10;7.77;;;;;;;8.57;100.00;149615.06;4996624;28;20101;-71
2022/12/25 11:17:59;;;;;;;16.47;7.37;;;;;;;8.58;100.00;149618.94;4997589;28;20065;-70
2022/12/25 11:20:24;;;;;;;20.27;7.57;;;;;;;8.49;100.00;149595.69;4996459;28;20049;-70
2022/12/25 11:22:50;;;;;;;19.70;7.87;;;;;;;8.59;100.00;149621.50;4995423;28;20575;-70
2022/12/25 11:25:26;;;;;;;19.10;7.70;;;;;;;8.63;100.00;149630.59;4998831;28;20038;-70
2022/12/25 11:28:03;;;;;;;22.40;8.93;;;;;;;8.66;100.00;149638.34;5002410;28;20042;-70
2022/12/25 11:30:31;;;;;;;23.07;8.70;;;;;;;8.75;100.00;149661.63;4987521;28;20037;-70
2022/12/25 11:33:03;;;;;;;19.20;8.30;;;;;;;8.77;100.00;149666.78;4993803;28;20034;-70
2022/12/25 11:35:31;;;;;;;22.60;8.50;;;;;;;8.77;100.00;149666.78;4989323;28;20393;-70
2022/12/25 11:37:56;;;;;;;20.57;9.10;;;;;;;8.78;100.00;149670.66;4987920;28;20116;-70
2022/12/25 11:40:26;;;;;;;19.97;7.03;;;;;;;8.73;100.00;149657.75;4989138;28;20113;-70
2022/12/25 11:43:02;;;;;;;12.47;5.93;;;;;;;8.76;100.00;149664.22;4991804;28;20037;-70
2022/12/25 11:45:40;;;;;;;19.00;7.07;;;;;;;8.72;100.00;149655.19;4988453;28;20430;-70
2022/12/25 11:48:17;;;;;;;23.57;8.30;;;;;;;8.72;100.00;149655.19;4991467;28;20581;-70
2022/12/25 11:50:58;;;;;;;16.77;6.63;;;;;;;8.65;100.00;149637.06;4994180;28;20125;-70
2022/12/25 11:53:47;;;;;;;14.32;6.43;;;;;;;8.62;100.00;149629.31;4988218;28;20462;-70
2022/12/25 11:56:27;;;;;;;16.10;5.97;;;;;;;8.60;100.00;149622.81;4994084;28;20069;-69
2022/12/25 11:58:59;;;;;;;13.67;5.30;;;;;;;8.58;100.00;149618.94;4990813;28;20034;-70
2022/12/25 12:01:51;;;;;;;14.60;5.77;;;;;;;8.54;100.00;149607.31;4996061;28;20065;-70
2022/12/25 12:04:28;;;;;;;12.20;4.53;;;;;;;8.46;100.00;149587.91;4994282;28;20078;-71
2022/12/25 12:07:00;;;;;;;15.33;6.77;;;;;;;8.45;100.00;149586.59;4995496;28;20109;-70
2022/12/25 12:09:33;;;;;;;14.83;5.70;;;;;;;8.41;100.00;149576.28;4995696;28;20045;-70
2022/12/25 12:12:11;;;;;;;14.80;5.57;;;;;;;8.42;100.00;149577.56;4996120;28;20057;-72
2022/12/25 12:14:50;;;;;;;15.20;7.00;;;;;;;8.39;100.00;149569.81;4993911;28;20030;-70
2022/12/25 12:17:17;;;;;;;16.10;6.30;;;;;;;8.36;100.00;149563.38;4995829;28;20019;-71
2022/12/25 12:19:43;;;;;;;13.40;6.97;;;;;;;8.34;100.00;149556.81;4995332;28;20034;-71
2022/12/25 12:22:26;;;;;;;16.03;7.17;;;;;;;8.33;100.00;149554.25;4995592;28;20056;-71
2022/12/25 12:25:14;;;;;;;16.43;7.67;;;;;;;8.31;100.00;149549.06;4995012;28;20034;-70
2022/12/25 12:27:40;;;;;;;15.70;7.53;;;;;;;8.30;100.00;149546.50;4992575;28;20045;-70
2022/12/25 12:30:20;;;;;;;17.73;7.60;;;;;;;8.29;100.00;149543.91;4994169;28;20386;-70
2022/12/25 12:32:53;;;;;;;20.90;9.00;;;;;;;8.20;100.00;149523.22;4995695;28;20054;-70
2022/12/25 12:35:24;;;;;;;17.53;8.43;;;;;;;8.19;100.00;149520.63;4995066;28;20042;-71
2022/12/25 12:38:13;;;;;;;19.27;8.10;;;;;;;8.19;100.00;149520.63;4994762;28;20015;-70
2022/12/25 12:40:51;;;;;;;17.80;9.03;;;;;;;8.26;100.00;149537.47;4993238;28;20065;-71
2022/12/25 12:43:40;;;;;;;18.53;9.23;;;;;;;8.27;100.00;149538.75;4993870;28;20041;-71
2022/12/25 12:46:19;;;;;;;17.03;7.93;;;;;;;8.27;100.00;149538.75;4992747;28;20030;-71
2022/12/25 12:48:48;;;;;;;16.93;8.03;;;;;;;8.19;100.00;149520.63;4992381;28;20027;-71
2022/12/25 12:51:30;;;;;;;20.67;9.23;;;;;;;8.18;100.00;149516.75;4995024;28;20471;-70
2022/12/25 12:54:19;;;;;;;24.53;8.57;;;;;;;8.28;100.00;149541.34;4995256;28;20085;-71
2022/12/25 12:57:04;;;;;;;20.20;8.50;;;;;;;8.26;100.00;149536.16;4995075;28;20034;-71
2022/12/25 12:59:36;;;;;;;19.30;8.90;;;;;;;8.22;100.00;149528.38;4990344;28;20045;-71
2022/12/25 13:02:32;;;;;;;23.47;8.50;;;;;;;8.21;100.00;149525.81;4982288;28;20057;-70
2022/12/25 13:04:58;;;;;;;24.83;9.30;;;;;;;8.21;100.00;149525.81;4994631;28;20030;-71
2022/12/25 13:07:26;;;;;;;19.70;9.40;;;;;;;8.20;100.00;149521.94;4995034;28;20028;-71